Main page
METAR-TAF:

METAR-TAF

Airports :

Ajaccio, France

Ajaccio Napoleon Bonaparte Airport

latitude: 41-55N, longitude: 008-48E, elevation: 6 m

Current weather observation

The report was made 37 minutes ago, at 07:00 UTC
Wind 1 kt from variable directions
Temperature 18°C
Humidity 56%
Pressure 1020 hPa
Visibility 10 km or more
no clouds below 1500 m and no cumulonimbus

METAR: LFKJ 230700Z AUTO VRB01KT CAVOK 18/09 Q1020 NOSIG

Time: 09:37 (07:37 UTC)

Forecast

The report was made 5 hours and 37 minutes ago, at 02:00 UTC
Forecast valid from 23 at 03 UTC to 24 at 03 UTC
Wind 4 kt from the East/Northeast
Visibility 10 km or more
no clouds below 1500 m and no cumulonimbus
Becoming
from 23 at 07 UTC to 23 at 09 UTC
Wind 10 kt from the Southwest
Becoming
from 23 at 17 UTC to 23 at 19 UTC
Wind 3 kt from variable directions

TAF: LFKJ 230200Z 2303/2403 06004KT CAVOK BECMG 2307/2309 22010KT BECMG 2317/2319 VRB03KT

Weather observations and forecasts of more than 4000 airports (METAR and TAF reports).

The available stations are represented by yellow and red dots on the map.

Hover mouse over dot to see the name of the station.

Then click to see weather observations and forecasts.

To change the map : click on the green buttons with a black cross to zoom in, on the green button with a dash to zoom out, or on the green arrows for adjacent maps.


METAR-TAF: